Time;durP1;ratioP1;P1;durP2;ratioP2;P2;SDS_P1;SDS_P2;PMS_P1;PMS_P2;Temp;Humidity;BMP_temperature;BMP_pressure;BME280_temperature;BME280_humidity;BME280_pressure;Samples;Min_cycle;Max_cycle;Signal;HPM_P1;HPM_P2
2024/01/13 00:00:23;;;;;;;12.55;8.65;;;5.40;99.90;;;;;;4898341;29;20768;-78
2024/01/13 00:02:50;;;;;;;14.75;9.20;;;5.30;99.90;;;;;;4898637;29;20855;-78
2024/01/13 00:05:18;;;;;;;19.58;10.73;;;5.40;99.90;;;;;;4897481;29;20233;-82
2024/01/13 00:07:47;;;;;;;11.48;8.75;;;5.40;99.90;;;;;;4917292;29;20229;-77
2024/01/13 00:10:17;;;;;;;16.92;8.98;;;5.40;99.90;;;;;;4917119;29;20551;-78
2024/01/13 00:12:44;;;;;;;10.70;7.03;;;5.40;99.90;;;;;;4917290;29;20229;-81
2024/01/13 00:15:13;;;;;;;12.75;7.63;;;5.50;99.90;;;;;;4917322;29;20703;-81
2024/01/13 00:17:40;;;;;;;7.78;5.78;;;5.50;99.90;;;;;;4909723;29;20260;-77
2024/01/13 00:20:24;;;;;;;15.20;7.90;;;5.40;99.90;;;;;;4908358;29;20708;-77
2024/01/13 00:22:51;;;;;;;17.23;7.55;;;5.50;99.90;;;;;;4905303;29;20217;-78
2024/01/13 00:25:28;;;;;;;14.25;8.27;;;5.60;99.90;;;;;;4926017;29;20217;-77
2024/01/13 00:28:16;;;;;;;12.45;6.40;;;5.60;99.90;;;;;;4918119;29;20239;-78
2024/01/13 00:30:59;;;;;;;6.85;5.97;;;5.60;99.90;;;;;;4885669;29;20557;-82
2024/01/13 00:33:26;;;;;;;11.23;7.38;;;5.60;99.90;;;;;;4916940;29;20657;-82
2024/01/13 00:35:53;;;;;;;11.52;6.40;;;5.60;99.90;;;;;;4916725;29;20237;-77
2024/01/13 00:38:21;;;;;;;13.60;7.22;;;5.60;99.90;;;;;;4916718;29;20237;-82
2024/01/13 00:40:48;;;;;;;10.90;6.82;;;5.60;99.90;;;;;;4916923;29;20273;-82
2024/01/13 00:43:15;;;;;;;11.43;5.68;;;5.60;99.90;;;;;;4916437;29;20276;-82
2024/01/13 00:45:42;;;;;;;14.77;7.45;;;5.60;99.90;;;;;;4917393;29;20571;-82
2024/01/13 00:48:10;;;;;;;11.18;6.82;;;5.60;99.90;;;;;;4916728;29;20229;-82
2024/01/13 00:50:37;;;;;;;14.80;6.72;;;5.60;99.90;;;;;;4917195;29;20221;-78
2024/01/13 00:53:04;;;;;;;13.55;8.02;;;5.60;99.90;;;;;;4915931;29;20235;-82
2024/01/13 00:55:31;;;;;;;14.70;6.82;;;5.60;99.90;;;;;;4917408;29;20225;-82
2024/01/13 00:57:58;;;;;;;13.57;7.53;;;5.60;99.90;;;;;;4898078;29;20237;-83
2024/01/13 01:00:26;;;;;;;13.90;5.53;;;5.60;99.90;;;;;;4897805;29;20237;-78
2024/01/13 01:02:53;;;;;;;12.00;6.40;;;5.60;99.90;;;;;;4898332;29;20551;-78
2024/01/13 01:05:21;;;;;;;8.48;5.18;;;5.60;99.90;;;;;;4897935;29;20555;-82
2024/01/13 01:07:48;;;;;;;9.98;6.03;;;5.60;99.90;;;;;;4898491;29;20684;-78
2024/01/13 01:10:15;;;;;;;8.32;6.60;;;5.60;99.90;;;;;;4897365;29;20225;-76
2024/01/13 01:12:43;;;;;;;9.57;5.78;;;5.50;99.90;;;;;;4897966;29;20573;-76
2024/01/13 01:15:10;;;;;;;9.23;5.75;;;5.60;99.90;;;;;;4897852;29;20230;-78
2024/01/13 01:17:38;;;;;;;10.15;5.60;;;5.60;99.90;;;;;;4905532;29;20218;-82
2024/01/13 01:20:11;;;;;;;11.15;5.50;;;5.60;99.90;;;;;;4916780;29;20244;-81
2024/01/13 01:22:39;;;;;;;10.95;6.03;;;5.60;99.90;;;;;;4916645;29;20373;-77
2024/01/13 01:25:07;;;;;;;6.60;5.40;;;5.60;99.90;;;;;;4925455;29;20247;-81
2024/01/13 01:27:34;;;;;;;9.10;5.72;;;5.70;99.90;;;;;;4934935;29;20553;-81
2024/01/13 01:30:01;;;;;;;8.55;5.15;;;5.70;99.90;;;;;;4936317;29;20227;-81
2024/01/13 01:32:30;;;;;;;13.40;6.28;;;5.70;99.90;;;;;;4917626;29;20241;-83
2024/01/13 01:34:57;;;;;;;11.52;5.20;;;5.70;99.90;;;;;;4917381;29;20244;-81
2024/01/13 01:37:24;;;;;;;11.25;6.65;;;5.80;99.90;;;;;;4919997;29;20260;-81
2024/01/13 01:39:52;;;;;;;12.15;6.45;;;5.80;99.90;;;;;;4920349;29;20225;-77
2024/01/13 01:42:19;;;;;;;9.45;5.63;;;5.70;99.90;;;;;;4919194;29;20233;-77
2024/01/13 01:44:46;;;;;;;8.73;5.47;;;5.70;99.90;;;;;;4919983;29;20272;-81
2024/01/13 01:47:15;;;;;;;8.80;6.25;;;5.80;99.90;;;;;;4919842;29;20226;-76
2024/01/13 01:49:42;;;;;;;13.20;7.93;;;5.80;99.90;;;;;;4919620;29;20229;-81
2024/01/13 01:52:09;;;;;;;13.50;9.95;;;5.80;99.90;;;;;;4920273;29;20320;-81
2024/01/13 01:54:37;;;;;;;12.20;7.60;;;5.80;99.90;;;;;;4919729;29;20232;-76
2024/01/13 01:57:06;;;;;;;9.73;6.15;;;5.80;99.90;;;;;;4916199;29;20225;-80
2024/01/13 01:59:33;;;;;;;11.27;5.53;;;5.80;99.90;;;;;;4900693;29;20234;-80
2024/01/13 02:02:05;;;;;;;10.90;6.47;;;5.80;99.90;;;;;;4902532;29;20225;-81
2024/01/13 02:04:32;;;;;;;11.85;5.70;;;5.80;99.90;;;;;;4899603;29;20249;-81
2024/01/13 02:06:59;;;;;;;9.88;5.35;;;5.80;99.90;;;;;;4900828;29;20233;-80
2024/01/13 02:09:27;;;;;;;6.88;4.60;;;5.80;99.90;;;;;;4899910;29;20676;-80
2024/01/13 02:11:54;;;;;;;12.68;4.55;;;5.90;99.90;;;;;;4899847;29;20237;-81
2024/01/13 02:14:23;;;;;;;10.23;3.95;;;5.90;99.90;;;;;;4900068;29;20676;-80
2024/01/13 02:16:50;;;;;;;9.43;4.68;;;5.90;99.90;;;;;;4904791;29;20260;-76
2024/01/13 02:19:18;;;;;;;12.77;4.65;;;5.90;99.90;;;;;;4919208;29;20234;-77
2024/01/13 02:21:46;;;;;;;10.13;5.40;;;5.80;99.90;;;;;;4918302;29;20221;-76
2024/01/13 02:24:13;;;;;;;8.57;4.53;;;5.80;99.90;;;;;;4920783;29;20240;-76
2024/01/13 02:26:40;;;;;;;12.25;4.63;;;5.70;99.90;;;;;;4937681;29;20244;-77
2024/01/13 02:29:07;;;;;;;10.10;5.15;;;5.70;99.90;;;;;;4938029;29;20252;-78
2024/01/13 02:31:34;;;;;;;7.70;5.47;;;5.70;99.90;;;;;;4926698;29;20237;-81
2024/01/13 02:34:01;;;;;;;6.30;3.97;;;5.70;99.90;;;;;;4918538;29;20245;-77
2024/01/13 02:36:28;;;;;;;6.82;4.18;;;5.70;99.90;;;;;;4918391;29;20619;-76
2024/01/13 02:38:56;;;;;;;6.95;4.97;;;5.70;99.90;;;;;;4919056;29;20225;-81
2024/01/13 02:41:24;;;;;;;7.35;4.82;;;5.70;99.90;;;;;;4918570;29;20732;-77
2024/01/13 02:43:54;;;;;;;8.27;5.13;;;5.70;99.90;;;;;;4918743;29;20688;-77
2024/01/13 02:46:21;;;;;;;6.20;4.28;;;5.70;99.90;;;;;;4918407;29;20273;-76
2024/01/13 02:48:53;;;;;;;10.73;5.97;;;5.80;99.90;;;;;;4917629;29;20235;-77
2024/01/13 02:51:21;;;;;;;9.45;4.60;;;5.80;99.90;;;;;;4918543;29;20233;-77
2024/01/13 02:53:48;;;;;;;4.35;3.95;;;5.80;99.90;;;;;;4918104;29;20234;-76
2024/01/13 02:56:16;;;;;;;7.10;3.30;;;5.80;99.90;;;;;;4918713;29;20233;-77
2024/01/13 02:58:43;;;;;;;5.32;4.35;;;5.80;99.90;;;;;;4900738;29;20681;-77
2024/01/13 03:01:10;;;;;;;4.38;3.15;;;5.90;99.90;;;;;;4900026;29;20677;-77
2024/01/13 03:03:41;;;;;;;6.28;4.15;;;5.90;99.90;;;;;;4898863;29;20262;-76
2024/01/13 03:06:08;;;;;;;5.90;3.40;;;5.90;99.90;;;;;;4899708;29;20297;-82
2024/01/13 03:08:35;;;;;;;5.82;3.45;;;5.90;99.90;;;;;;4898315;29;20230;-78
2024/01/13 03:11:02;;;;;;;3.55;3.22;;;5.90;99.90;;;;;;4899695;29;20234;-78
2024/01/13 03:13:30;;;;;;;4.70;3.92;;;5.90;99.90;;;;;;4899025;29;20325;-77
2024/01/13 03:15:57;;;;;;;5.18;3.58;;;5.90;99.90;;;;;;4888948;29;20341;-77
2024/01/13 03:18:26;;;;;;;5.60;3.95;;;5.90;99.90;;;;;;4918853;29;20237;-81
2024/01/13 03:20:53;;;;;;;4.10;3.70;;;5.90;99.90;;;;;;4917352;29;20308;-76
2024/01/13 03:23:20;;;;;;;5.75;4.75;;;5.90;99.90;;;;;;4918834;29;20242;-81
2024/01/13 03:25:47;;;;;;;3.92;3.53;;;5.90;99.90;;;;;;4918015;29;20225;-81
2024/01/13 03:28:14;;;;;;;3.63;2.95;;;5.90;99.90;;;;;;4918207;29;20522;-78
2024/01/13 03:30:42;;;;;;;5.38;2.88;;;5.90;99.90;;;;;;4914203;29;20233;-82
2024/01/13 03:33:10;;;;;;;4.13;3.40;;;5.90;99.90;;;;;;4899181;29;20238;-82
2024/01/13 03:35:37;;;;;;;3.95;3.53;;;5.90;99.90;;;;;;4898454;29;20248;-78
2024/01/13 03:38:04;;;;;;;4.90;2.95;;;5.90;99.90;;;;;;4899296;29;20242;-82
2024/01/13 03:40:31;;;;;;;10.75;3.90;;;5.90;99.90;;;;;;4898304;29;20230;-81
2024/01/13 03:42:58;;;;;;;6.13;4.38;;;5.90;99.90;;;;;;4898957;29;20230;-81
2024/01/13 03:45:25;;;;;;;5.20;3.65;;;5.80;99.90;;;;;;4899199;29;20681;-78
2024/01/13 03:47:54;;;;;;;5.15;4.20;;;5.80;99.90;;;;;;4898426;29;20229;-77
2024/01/13 03:50:22;;;;;;;7.47;4.85;;;5.80;99.90;;;;;;4899106;29;20237;-81
2024/01/13 03:52:49;;;;;;;5.57;4.65;;;5.80;99.90;;;;;;4898468;29;20305;-77
2024/01/13 03:55:16;;;;;;;6.40;5.63;;;5.90;99.90;;;;;;4899362;29;20234;-77
2024/01/13 03:57:43;;;;;;;9.07;4.65;;;5.80;99.90;;;;;;4916688;29;20233;-77
2024/01/13 04:00:11;;;;;;;5.55;4.72;;;5.90;99.90;;;;;;4917582;29;20236;-77
2024/01/13 04:02:38;;;;;;;9.38;5.05;;;5.90;99.90;;;;;;4916975;29;20237;-77
2024/01/13 04:05:07;;;;;;;5.88;4.93;;;5.90;99.90;;;;;;4917565;29;20278;-77
2024/01/13 04:07:34;;;;;;;4.75;3.75;;;5.90;99.90;;;;;;4916882;29;20253;-77
2024/01/13 04:10:01;;;;;;;17.23;9.32;;;5.80;99.90;;;;;;4916332;29;20236;-77
2024/01/13 04:12:28;;;;;;;6.68;5.22;;;5.80;99.90;;;;;;4917213;29;20312;-77
2024/01/13 04:14:55;;;;;;;5.07;4.57;;;5.70;99.90;;;;;;4915532;29;20234;-80
2024/01/13 04:17:25;;;;;;;4.88;4.45;;;5.70;99.90;;;;;;4917664;29;20262;-78
2024/01/13 04:19:55;;;;;;;4.85;4.35;;;5.80;99.90;;;;;;4917128;29;20609;-80
2024/01/13 04:22:23;;;;;;;4.70;4.20;;;5.70;99.90;;;;;;4917741;29;20329;-81
2024/01/13 04:25:21;;;;;;;4.50;3.90;;;5.70;99.90;;;;;;4917914;29;20233;-77
2024/01/13 04:27:50;;;;;;;4.55;4.03;;;5.80;99.90;;;;;;4907204;29;20255;-80
2024/01/13 04:30:17;;;;;;;5.60;4.18;;;5.80;99.90;;;;;;4917835;29;20609;-81
2024/01/13 04:32:44;;;;;;;5.20;4.22;;;5.80;99.90;;;;;;4919984;29;20261;-80
2024/01/13 04:35:12;;;;;;;3.72;3.30;;;5.80;99.90;;;;;;4916428;29;20230;-77
2024/01/13 04:37:44;;;;;;;6.10;4.78;;;5.80;99.90;;;;;;4917123;29;20226;-77
2024/01/13 04:40:12;;;;;;;4.28;3.88;;;5.80;99.90;;;;;;4912565;29;20558;-81
2024/01/13 04:42:39;;;;;;;4.60;4.10;;;5.80;99.90;;;;;;4917668;29;20225;-82
2024/01/13 04:45:07;;;;;;;5.60;4.15;;;5.70;99.90;;;;;;4916045;29;20229;-78
2024/01/13 04:47:35;;;;;;;4.90;4.47;;;5.70;99.90;;;;;;4917172;29;20254;-78
2024/01/13 04:50:02;;;;;;;6.45;4.82;;;5.70;99.90;;;;;;4916219;29;20692;-78
2024/01/13 04:52:29;;;;;;;4.50;4.05;;;5.80;99.90;;;;;;4916902;29;20244;-78
2024/01/13 04:54:58;;;;;;;7.00;4.47;;;5.70;99.90;;;;;;4916224;29;20239;-78
2024/01/13 04:57:25;;;;;;;4.75;3.97;;;5.70;99.90;;;;;;4916887;29;20308;-77
2024/01/13 04:59:52;;;;;;;4.97;3.75;;;5.70;99.90;;;;;;4915883;29;20240;-79
2024/01/13 05:02:19;;;;;;;4.85;3.72;;;5.70;99.90;;;;;;4917736;29;20229;-82
2024/01/13 05:04:46;;;;;;;4.22;3.83;;;5.70;99.90;;;;;;4916734;29;20225;-82
2024/01/13 05:07:13;;;;;;;4.55;3.95;;;5.70;99.90;;;;;;4916362;29;20229;-78
2024/01/13 05:09:41;;;;;;;4.00;3.55;;;5.80;99.90;;;;;;4916684;29;20230;-78
2024/01/13 05:12:09;;;;;;;4.57;3.70;;;5.80;99.90;;;;;;4919965;29;20237;-78
2024/01/13 05:14:36;;;;;;;4.20;3.13;;;5.80;99.90;;;;;;4920600;29;20704;-78
2024/01/13 05:17:04;;;;;;;4.38;3.95;;;5.80;99.90;;;;;;4920093;29;20265;-78
2024/01/13 05:19:31;;;;;;;5.43;3.30;;;5.70;99.90;;;;;;4920391;29;20233;-82
2024/01/13 05:21:58;;;;;;;4.10;3.50;;;5.70;99.90;;;;;;4919992;29;20703;-78
2024/01/13 05:24:25;;;;;;;3.75;3.45;;;5.70;99.90;;;;;;4920384;29;20232;-78
2024/01/13 05:26:52;;;;;;;4.88;3.70;;;5.70;99.90;;;;;;4920056;29;20225;-78
2024/01/13 05:29:21;;;;;;;3.92;3.53;;;5.80;99.90;;;;;;4920063;29;20232;-78
2024/01/13 05:31:48;;;;;;;4.00;3.30;;;5.70;99.90;;;;;;4919901;29;20236;-78
2024/01/13 05:34:15;;;;;;;3.65;3.00;;;5.70;99.90;;;;;;4919545;29;20323;-78
2024/01/13 05:36:42;;;;;;;6.88;4.95;;;5.70;99.90;;;;;;4920178;29;20240;-82
2024/01/13 05:39:09;;;;;;;2.90;2.70;;;5.60;99.90;;;;;;4919620;29;20673;-78
2024/01/13 05:41:36;;;;;;;4.13;3.03;;;5.60;99.90;;;;;;4919987;29;20225;-78
2024/01/13 05:44:06;;;;;;;4.13;3.53;;;5.60;99.90;;;;;;4919486;29;20681;-78
2024/01/13 05:46:35;;;;;;;3.20;2.90;;;5.50;99.90;;;;;;4919797;29;20312;-82
2024/01/13 05:49:02;;;;;;;3.47;2.90;;;5.60;99.90;;;;;;4917629;29;20273;-82
2024/01/13 05:51:29;;;;;;;3.30;2.50;;;5.60;99.90;;;;;;4920120;29;20289;-78
2024/01/13 05:53:56;;;;;;;3.50;3.20;;;5.60;99.90;;;;;;4919641;29;20227;-78
2024/01/13 05:56:23;;;;;;;4.55;4.03;;;5.50;99.90;;;;;;4919476;29;20238;-78
2024/01/13 05:58:50;;;;;;;3.92;3.45;;;5.60;99.90;;;;;;4919899;29;20233;-78
2024/01/13 06:01:17;;;;;;;3.72;3.38;;;5.60;99.90;;;;;;4918861;29;20269;-78
2024/01/13 06:03:45;;;;;;;4.30;3.72;;;5.50;99.90;;;;;;4919405;29;20248;-78
2024/01/13 06:06:12;;;;;;;4.22;3.63;;;5.60;99.90;;;;;;4919103;29;20225;-77
2024/01/13 06:08:39;;;;;;;4.45;4.00;;;5.60;99.90;;;;;;4919633;29;20597;-77
2024/01/13 06:11:07;;;;;;;4.05;3.63;;;5.60;99.90;;;;;;4918879;29;20234;-78
2024/01/13 06:13:35;;;;;;;4.70;4.20;;;5.60;99.90;;;;;;4919493;29;20230;-78
2024/01/13 06:16:00;;;;;;;5.18;4.68;;;5.60;99.90;;;;;;4918568;29;20257;-82
2024/01/13 06:18:27;;;;;;;8.20;4.67;;;5.50;99.90;;;;;;4919677;29;20680;-82
2024/01/13 06:20:56;;;;;;;4.75;4.32;;;5.60;99.90;;;;;;4919384;29;20488;-78
2024/01/13 06:23:23;;;;;;;5.20;4.10;;;5.60;99.90;;;;;;4918482;29;20233;-82
2024/01/13 06:25:50;;;;;;;6.43;5.72;;;5.60;99.90;;;;;;4919208;29;20226;-82
2024/01/13 06:28:17;;;;;;;6.03;5.22;;;5.60;99.90;;;;;;4918687;29;20233;-82
2024/01/13 06:30:44;;;;;;;6.65;5.40;;;5.70;99.90;;;;;;4919175;29;20225;-82
2024/01/13 06:33:11;;;;;;;6.28;4.95;;;5.70;99.90;;;;;;4918723;29;20244;-81
2024/01/13 06:35:38;;;;;;;7.70;5.90;;;5.70;99.90;;;;;;4918765;29;20312;-78
2024/01/13 06:38:07;;;;;;;9.80;6.20;;;5.70;99.90;;;;;;4918714;29;20225;-82
2024/01/13 06:40:34;;;;;;;6.70;5.70;;;5.60;99.90;;;;;;4919052;29;20531;-81
2024/01/13 06:43:00;;;;;;;6.47;5.70;;;5.60;99.90;;;;;;4918747;29;20241;-82
2024/01/13 06:45:27;;;;;;;7.03;5.65;;;5.60;99.90;;;;;;4918640;29;20230;-81
2024/01/13 06:47:54;;;;;;;6.38;5.40;;;5.70;99.90;;;;;;4918989;29;20293;-82
2024/01/13 06:50:21;;;;;;;8.70;6.20;;;5.70;99.90;;;;;;4918108;29;20300;-81
2024/01/13 06:52:48;;;;;;;8.00;5.93;;;5.70;99.90;;;;;;4918896;29;20229;-78
2024/01/13 06:55:22;;;;;;;5.05;4.55;;;5.70;99.90;;;;;;4917933;29;20229;-78
2024/01/13 06:57:49;;;;;;;6.40;5.25;;;5.70;99.90;;;;;;4918263;29;20284;-78
2024/01/13 07:00:17;;;;;;;6.43;5.72;;;5.70;99.90;;;;;;4917769;29;20244;-78
2024/01/13 07:02:44;;;;;;;6.30;5.53;;;5.70;99.90;;;;;;4918581;29;20285;-78
2024/01/13 07:05:12;;;;;;;6.25;4.90;;;5.70;99.90;;;;;;4917716;29;20340;-78
2024/01/13 07:07:40;;;;;;;6.93;5.13;;;5.70;99.90;;;;;;4918490;29;20243;-78
2024/01/13 07:10:09;;;;;;;6.20;5.10;;;5.70;99.90;;;;;;4918157;29;20237;-78
2024/01/13 07:12:37;;;;;;;6.55;5.28;;;5.70;99.90;;;;;;4918453;29;20269;-78
2024/01/13 07:15:05;;;;;;;7.03;5.75;;;5.60;99.90;;;;;;4918107;29;20234;-78
2024/01/13 07:17:32;;;;;;;5.30;4.72;;;5.70;99.90;;;;;;4918327;29;20240;-78
2024/01/13 07:19:59;;;;;;;5.00;4.53;;;5.70;99.90;;;;;;4918293;29;20221;-77
2024/01/13 07:22:27;;;;;;;5.20;4.70;;;5.70;99.90;;;;;;4917887;29;20237;-77
2024/01/13 07:24:55;;;;;;;5.65;5.13;;;5.70;99.90;;;;;;4918374;29;20248;-78
2024/01/13 07:27:22;;;;;;;5.45;4.85;;;5.70;99.90;;;;;;4917822;29;20241;-81
2024/01/13 07:29:51;;;;;;;5.28;4.78;;;5.70;99.90;;;;;;4918048;29;20225;-78
2024/01/13 07:32:18;;;;;;;5.60;4.55;;;5.70;99.90;;;;;;4917268;29;20714;-78
2024/01/13 07:34:45;;;;;;;5.00;4.32;;;5.70;99.90;;;;;;4917805;29;20225;-78
2024/01/13 07:37:12;;;;;;;5.65;4.22;;;5.70;99.90;;;;;;4917887;29;20249;-80
2024/01/13 07:39:39;;;;;;;6.40;3.85;;;5.70;99.90;;;;;;4917827;29;20225;-76
2024/01/13 07:42:06;;;;;;;4.72;4.30;;;5.80;99.90;;;;;;4915822;29;20738;-76
2024/01/13 07:44:33;;;;;;;5.63;4.28;;;5.80;99.90;;;;;;4917207;29;20692;-80
2024/01/13 07:47:03;;;;;;;4.78;3.45;;;5.80;99.90;;;;;;4918320;29;20221;-76
2024/01/13 07:49:33;;;;;;;4.45;4.05;;;5.80;99.90;;;;;;4917504;29;20369;-76
2024/01/13 07:52:00;;;;;;;3.90;3.33;;;5.80;99.90;;;;;;4917762;29;20237;-76
2024/01/13 07:54:27;;;;;;;4.10;3.70;;;5.80;99.90;;;;;;4917353;29;20233;-76
2024/01/13 07:56:55;;;;;;;4.13;3.50;;;5.80;99.90;;;;;;4917588;29;20237;-76
2024/01/13 07:59:23;;;;;;;5.57;4.10;;;5.90;99.90;;;;;;4916953;29;20822;-76
2024/01/13 08:01:55;;;;;;;4.07;3.40;;;5.90;99.90;;;;;;4917453;29;20320;-76
2024/01/13 08:04:23;;;;;;;3.92;3.63;;;6.00;99.90;;;;;;4916233;29;20237;-80
2024/01/13 08:06:50;;;;;;;4.03;3.40;;;6.00;99.90;;;;;;4917602;29;20226;-80
2024/01/13 08:09:18;;;;;;;4.07;3.72;;;5.90;99.90;;;;;;4917539;29;20272;-80
2024/01/13 08:11:45;;;;;;;3.00;2.78;;;5.90;99.90;;;;;;4916788;29;20226;-80
2024/01/13 08:14:12;;;;;;;3.80;2.38;;;5.90;99.90;;;;;;4917429;29;20256;-80
2024/01/13 08:16:42;;;;;;;2.55;2.00;;;5.90;99.90;;;;;;4917462;29;20236;-80
2024/01/13 08:19:09;;;;;;;3.13;2.83;;;5.90;99.90;;;;;;4917371;29;20233;-80
2024/01/13 08:21:41;;;;;;;3.30;2.85;;;5.90;99.90;;;;;;4916807;29;20716;-81
2024/01/13 08:24:10;;;;;;;2.20;2.00;;;5.90;99.90;;;;;;4917712;29;20617;-80
2024/01/13 08:26:37;;;;;;;2.78;2.58;;;5.80;99.90;;;;;;4916662;29;20236;-80
2024/01/13 08:29:04;;;;;;;2.00;1.83;;;5.80;99.90;;;;;;4917231;29;20264;-80
2024/01/13 08:31:31;;;;;;;2.40;2.20;;;5.80;99.90;;;;;;4916722;29;20233;-80
2024/01/13 08:33:58;;;;;;;2.40;2.20;;;5.70;99.90;;;;;;4917076;29;20320;-80
2024/01/13 08:36:25;;;;;;;1.88;1.77;;;5.70;99.90;;;;;;4916508;29;20234;-80
2024/01/13 08:38:53;;;;;;;3.53;3.03;;;5.70;99.90;;;;;;4917207;29;20236;-82
2024/01/13 08:41:20;;;;;;;2.75;2.50;;;5.70;99.90;;;;;;4916265;29;20237;-81
2024/01/13 08:43:48;;;;;;;2.38;2.17;;;5.60;99.90;;;;;;4917398;29;20230;-81
2024/01/13 08:46:15;;;;;;;2.92;2.35;;;5.70;99.90;;;;;;4919644;29;20743;-81
2024/01/13 08:48:43;;;;;;;2.63;2.42;;;5.70;99.90;;;;;;4920517;29;20228;-81
2024/01/13 08:51:10;;;;;;;3.03;2.70;;;5.70;99.90;;;;;;4920981;29;20229;-81
2024/01/13 08:53:37;;;;;;;3.17;2.22;;;5.70;99.90;;;;;;4920431;29;20228;-81
2024/01/13 08:56:06;;;;;;;3.80;2.40;;;5.80;99.90;;;;;;4920995;29;20574;-78
2024/01/13 08:58:38;;;;;;;1.80;1.70;;;5.80;99.90;;;;;;4920916;29;20615;-81
2024/01/13 09:01:05;;;;;;;2.95;2.75;;;5.80;99.90;;;;;;4921408;29;20331;-81
2024/01/13 09:03:35;;;;;;;2.88;2.65;;;5.70;99.90;;;;;;4920341;29;20705;-78
2024/01/13 09:06:03;;;;;;;2.78;2.50;;;5.80;99.90;;;;;;4920772;29;20229;-78
2024/01/13 09:08:30;;;;;;;4.40;2.72;;;5.80;99.90;;;;;;4920533;29;20285;-81
2024/01/13 09:10:57;;;;;;;6.43;3.22;;;5.80;99.90;;;;;;4921236;29;20312;-78
2024/01/13 09:13:26;;;;;;;3.53;2.88;;;5.80;99.90;;;;;;4920389;29;20324;-78
2024/01/13 09:15:53;;;;;;;2.95;2.65;;;5.80;99.90;;;;;;4920650;29;20221;-81
2024/01/13 09:18:20;;;;;;;2.80;2.60;;;5.90;99.90;;;;;;4920687;29;20229;-78
2024/01/13 09:20:47;;;;;;;3.15;2.50;;;5.90;99.90;;;;;;4919812;29;20225;-78
2024/01/13 09:23:14;;;;;;;3.38;3.08;;;6.00;99.90;;;;;;4920108;29;20688;-78
2024/01/13 09:25:41;;;;;;;5.50;4.40;;;6.00;99.90;;;;;;4919674;29;20237;-78
2024/01/13 09:28:09;;;;;;;4.68;4.10;;;6.10;99.90;;;;;;4920054;29;20233;-78
2024/01/13 09:30:38;;;;;;;2.47;2.28;;;6.00;99.90;;;;;;4919374;29;20257;-78
2024/01/13 09:33:05;;;;;;;5.40;3.90;;;6.00;99.90;;;;;;4920081;29;20312;-78
2024/01/13 09:35:32;;;;;;;3.90;3.50;;;6.10;99.90;;;;;;4919440;29;20259;-81
2024/01/13 09:37:59;;;;;;;4.22;3.70;;;6.10;99.90;;;;;;4920012;29;20229;-82
2024/01/13 09:40:27;;;;;;;3.95;3.60;;;6.10;99.90;;;;;;4919448;29;20229;-79
2024/01/13 09:43:06;;;;;;;5.30;4.80;;;6.20;99.90;;;;;;4919492;29;20229;-78
2024/01/13 09:45:33;;;;;;;4.85;4.43;;;6.10;99.90;;;;;;4919196;29;20233;-78
2024/01/13 09:48:07;;;;;;;6.03;5.20;;;6.10;99.90;;;;;;4919485;29;20229;-81
2024/01/13 09:50:34;;;;;;;4.90;4.40;;;6.10;99.90;;;;;;4919062;29;20229;-81
2024/01/13 09:53:04;;;;;;;7.13;6.45;;;6.20;99.90;;;;;;4919854;29;20234;-81
2024/01/13 09:55:33;;;;;;;3.92;3.40;;;6.20;99.90;;;;;;4918870;29;20620;-78
2024/01/13 09:58:00;;;;;;;3.30;3.00;;;6.10;99.90;;;;;;4919411;29;20629;-78
2024/01/13 10:00:30;;;;;;;3.50;3.20;;;6.10;99.90;;;;;;4917991;29;20261;-79
2024/01/13 10:02:58;;;;;;;3.70;3.00;;;6.10;99.90;;;;;;4919018;29;20264;-78
2024/01/13 10:05:30;;;;;;;2.72;2.40;;;6.10;99.90;;;;;;4919130;29;20233;-78
2024/01/13 10:07:58;;;;;;;3.25;2.83;;;6.10;99.90;;;;;;4920378;29;20232;-82
2024/01/13 10:10:26;;;;;;;2.67;2.47;;;6.10;99.90;;;;;;4919584;29;20229;-82
2024/01/13 10:12:53;;;;;;;3.08;2.78;;;6.10;99.90;;;;;;4921812;29;20237;-81
2024/01/13 10:15:20;;;;;;;2.97;2.78;;;6.10;99.90;;;;;;4903151;29;20237;-81
2024/01/13 10:17:47;;;;;;;3.30;2.95;;;6.00;99.90;;;;;;4918354;29;20263;-78
2024/01/13 10:20:15;;;;;;;3.08;2.78;;;6.10;99.90;;;;;;4911700;29;20241;-78
2024/01/13 10:22:43;;;;;;;2.88;2.65;;;6.00;99.90;;;;;;4912338;29;20244;-82
2024/01/13 10:25:11;;;;;;;2.92;2.70;;;6.10;99.90;;;;;;4929431;29;20220;-81
2024/01/13 10:27:39;;;;;;;3.45;3.05;;;6.10;99.90;;;;;;4927599;29;20549;-81
2024/01/13 10:30:08;;;;;;;3.55;3.25;;;6.10;99.90;;;;;;4924871;29;20252;-82
2024/01/13 10:32:35;;;;;;;3.40;2.70;;;6.10;99.90;;;;;;4925263;29;20230;-82
2024/01/13 10:35:17;;;;;;;3.10;2.90;;;6.20;99.90;;;;;;4927380;29;20240;-81
2024/01/13 10:37:45;;;;;;;3.47;2.90;;;6.20;99.90;;;;;;4926851;29;20224;-81
2024/01/13 10:40:12;;;;;;;2.22;2.13;;;6.30;99.90;;;;;;4929186;29;20318;-82
2024/01/13 10:42:44;;;;;;;2.55;2.35;;;6.30;99.90;;;;;;4926722;29;20229;-78
2024/01/13 10:45:14;;;;;;;3.28;3.08;;;6.40;99.90;;;;;;4924586;29;20222;-79
2024/01/13 10:47:45;;;;;;;3.47;2.25;;;6.30;99.90;;;;;;4920993;29;20229;-78
2024/01/13 10:50:12;;;;;;;3.13;2.83;;;6.30;99.90;;;;;;4918706;29;20233;-78
2024/01/13 10:52:50;;;;;;;3.38;2.03;;;6.30;99.90;;;;;;4923137;29;20236;-79
2024/01/13 10:55:17;;;;;;;3.15;2.85;;;6.30;99.90;;;;;;4927688;29;20728;-78
2024/01/13 10:57:46;;;;;;;3.08;2.80;;;6.30;99.90;;;;;;4925773;29;20221;-78
2024/01/13 11:00:14;;;;;;;2.70;2.50;;;6.30;99.90;;;;;;4927462;29;20229;-77
2024/01/13 11:02:42;;;;;;;3.15;2.90;;;6.30;99.90;;;;;;4925513;29;20240;-78
2024/01/13 11:05:10;;;;;;;2.55;2.35;;;6.40;99.90;;;;;;4916339;29;20245;-77
2024/01/13 11:07:38;;;;;;;4.47;4.05;;;6.40;99.90;;;;;;4917919;29;20234;-77
2024/01/13 11:10:12;;;;;;;4.78;4.00;;;6.40;99.90;;;;;;4917952;29;20253;-77
2024/01/13 11:12:44;;;;;;;3.53;3.22;;;6.40;99.90;;;;;;4909073;29;20248;-82
2024/01/13 11:15:17;;;;;;;4.45;4.05;;;6.40;99.90;;;;;;4901484;29;20221;-82
2024/01/13 11:17:46;;;;;;;2.67;2.47;;;6.30;99.90;;;;;;4930277;29;20240;-78
2024/01/13 11:20:13;;;;;;;3.22;2.95;;;6.30;99.90;;;;;;4930033;29;20225;-78
2024/01/13 11:22:40;;;;;;;5.93;2.40;;;6.30;99.90;;;;;;4919163;29;20236;-78
2024/01/13 11:25:25;;;;;;;2.10;1.90;;;6.30;99.90;;;;;;4918227;29;20233;-77
2024/01/13 11:27:58;;;;;;;2.55;2.35;;;6.30;99.90;;;;;;4923281;29;20404;-77
2024/01/13 11:30:48;;;;;;;2.63;2.42;;;6.30;99.90;;;;;;4927692;29;20236;-77
2024/01/13 11:33:16;;;;;;;2.35;2.15;;;6.30;99.90;;;;;;4923359;29;21296;-77
2024/01/13 11:35:45;;;;;;;4.15;3.75;;;6.30;99.90;;;;;;4924127;29;20302;-78
2024/01/13 11:38:14;;;;;;;6.22;2.60;;;6.30;99.90;;;;;;4925858;29;20236;-78
2024/01/13 11:40:50;;;;;;;3.92;2.83;;;6.20;99.90;;;;;;4927499;29;20276;-82
2024/01/13 11:43:24;;;;;;;2.05;1.95;;;6.20;99.90;;;;;;4934046;29;20318;-80
2024/01/13 11:45:52;;;;;;;2.40;2.22;;;6.10;99.90;;;;;;4938117;29;20222;-81
2024/01/13 11:48:39;;;;;;;3.53;2.88;;;6.10;99.90;;;;;;4925621;29;20220;-81
2024/01/13 11:51:14;;;;;;;2.90;2.10;;;6.10;99.90;;;;;;4926992;29;20229;-82
2024/01/13 11:53:43;;;;;;;2.50;2.03;;;6.00;99.90;;;;;;4925867;29;20225;-82
2024/01/13 11:56:14;;;;;;;2.58;2.38;;;6.00;99.90;;;;;;4919902;29;20679;-78
2024/01/13 11:58:42;;;;;;;3.30;3.00;;;6.00;99.90;;;;;;4929458;29;20255;-78
2024/01/13 12:01:11;;;;;;;3.20;2.90;;;6.00;99.90;;;;;;4928023;29;20694;-77
2024/01/13 12:03:40;;;;;;;2.38;2.17;;;6.00;99.90;;;;;;4927063;29;20575;-78
2024/01/13 12:06:09;;;;;;;4.30;3.90;;;6.10;99.90;;;;;;4926458;29;20248;-78
2024/01/13 12:08:36;;;;;;;2.55;2.35;;;6.10;99.90;;;;;;4927297;29;20231;-77
2024/01/13 12:11:07;;;;;;;2.50;2.30;;;6.10;99.90;;;;;;4921372;29;20317;-77
2024/01/13 12:13:35;;;;;;;2.67;2.47;;;6.20;99.90;;;;;;4912785;29;20641;-77
2024/01/13 12:16:08;;;;;;;2.80;2.60;;;6.20;99.90;;;;;;4898161;29;20254;-77
2024/01/13 12:18:35;;;;;;;3.05;2.75;;;6.20;99.90;;;;;;4898544;29;20241;-79
2024/01/13 12:21:04;;;;;;;2.22;2.13;;;6.10;99.90;;;;;;4929297;29;20323;-82
2024/01/13 12:23:33;;;;;;;2.45;2.28;;;6.20;99.90;;;;;;4938203;29;20688;-77
2024/01/13 12:26:00;;;;;;;4.10;2.60;;;6.20;99.90;;;;;;4936559;29;20228;-81
2024/01/13 12:28:27;;;;;;;3.25;2.95;;;6.30;99.90;;;;;;4938862;29;20258;-82
2024/01/13 12:30:56;;;;;;;2.65;2.45;;;6.20;99.90;;;;;;4938986;29;20715;-83
2024/01/13 12:33:23;;;;;;;2.53;2.35;;;6.30;99.90;;;;;;4936914;29;20244;-78
2024/01/13 12:35:58;;;;;;;2.90;2.70;;;6.30;99.90;;;;;;4935921;29;20244;-79
2024/01/13 12:38:26;;;;;;;2.55;2.35;;;6.40;99.90;;;;;;4935154;29;20706;-78
2024/01/13 12:40:54;;;;;;;2.38;2.03;;;6.40;99.90;;;;;;4934946;29;20238;-77
2024/01/13 12:43:21;;;;;;;2.90;2.70;;;6.40;99.90;;;;;;4932312;29;20285;-77
2024/01/13 12:45:50;;;;;;;6.25;4.40;;;6.40;99.90;;;;;;4926892;29;20224;-78
2024/01/13 12:48:18;;;;;;;2.80;2.60;;;6.40;99.90;;;;;;4925717;29;20253;-78
2024/01/13 12:50:45;;;;;;;4.07;3.67;;;6.40;99.90;;;;;;4922681;29;20226;-78
2024/01/13 12:53:13;;;;;;;4.55;4.18;;;6.40;99.90;;;;;;4925579;29;20271;-78
2024/01/13 12:55:41;;;;;;;3.05;2.33;;;6.30;99.90;;;;;;4926924;29;20237;-78
2024/01/13 12:58:08;;;;;;;4.85;4.38;;;6.20;99.90;;;;;;4924638;29;20237;-77
2024/01/13 13:00:34;;;;;;;2.67;2.47;;;6.20;99.90;;;;;;4925674;29;20755;-77